createdAt,value
2023-10-01T00:00:18.648Z,12.53
2023-10-01T00:02:46.485Z,13.00
2023-10-01T00:05:13.577Z,10.77
2023-10-01T00:07:40.424Z,10.67
2023-10-01T00:10:17.048Z,12.37
2023-10-01T00:12:49.109Z,10.27
2023-10-01T00:15:18.048Z,13.00
2023-10-01T00:17:46.803Z,10.93
2023-10-01T00:20:23.632Z,9.23
2023-10-01T00:22:58.712Z,10.27
2023-10-01T00:25:26.027Z,11.57
2023-10-01T00:27:52.953Z,10.40
2023-10-01T00:30:20.006Z,10.90
2023-10-01T00:32:47.257Z,9.13
2023-10-01T00:35:13.968Z,10.10
2023-10-01T00:37:41.064Z,10.47
2023-10-01T00:40:11.709Z,9.10
2023-10-01T00:42:39.896Z,10.47
2023-10-01T00:45:09.168Z,9.57
2023-10-01T00:47:41.535Z,11.07
2023-10-01T00:50:17.390Z,9.60
2023-10-01T00:52:46.059Z,10.13
2023-10-01T00:55:15.009Z,9.63
2023-10-01T00:57:42.581Z,9.47
2023-10-01T01:00:13.581Z,11.60
2023-10-01T01:02:58.735Z,13.37
2023-10-01T01:05:27.157Z,11.27
2023-10-01T01:07:55.736Z,13.50
2023-10-01T01:10:27.180Z,10.70
2023-10-01T01:12:55.694Z,13.17
2023-10-01T01:15:22.704Z,12.47
2023-10-01T01:17:52.156Z,12.13
2023-10-01T01:20:20.994Z,10.83
2023-10-01T01:22:52.606Z,11.80
2023-10-01T01:25:22.434Z,11.43
2023-10-01T01:27:49.398Z,11.47
2023-10-01T01:30:20.023Z,11.30
2023-10-01T01:32:54.319Z,9.57
2023-10-01T01:35:29.374Z,10.77
2023-10-01T01:37:57.563Z,10.57
2023-10-01T01:40:33.132Z,12.27
2023-10-01T01:43:05.797Z,10.70
2023-10-01T01:45:34.306Z,10.23
2023-10-01T01:48:22.615Z,10.60
2023-10-01T01:50:49.719Z,11.30
2023-10-01T01:53:19.419Z,9.87
2023-10-01T01:55:46.553Z,10.63
2023-10-01T01:58:16.594Z,10.47
2023-10-01T02:01:04.207Z,10.07
2023-10-01T02:03:35.023Z,10.53
2023-10-01T02:06:02.518Z,12.73
2023-10-01T02:08:48.477Z,11.20
2023-10-01T02:11:15.957Z,11.33
2023-10-01T02:13:46.630Z,12.00
2023-10-01T02:16:29.986Z,10.73
2023-10-01T02:19:19.401Z,10.50
2023-10-01T02:21:53.982Z,11.40
2023-10-01T02:24:38.776Z,10.40
2023-10-01T02:27:06.303Z,12.13
2023-10-01T02:29:33.781Z,10.97
2023-10-01T02:32:06.592Z,11.87
2023-10-01T02:34:33.775Z,10.87
2023-10-01T02:37:05.331Z,10.47
2023-10-01T02:39:32.106Z,10.27
2023-10-01T02:42:08.732Z,12.70
2023-10-01T02:44:41.388Z,11.33
2023-10-01T02:47:18.468Z,11.17
2023-10-01T02:49:59.348Z,11.80
2023-10-01T02:52:33.469Z,11.50
2023-10-01T02:55:01.895Z,12.17
2023-10-01T02:57:34.479Z,11.43
2023-10-01T03:00:13.242Z,10.73
2023-10-01T03:02:42.682Z,11.67
2023-10-01T03:05:19.852Z,10.13
2023-10-01T03:07:51.721Z,11.77
2023-10-01T03:10:32.415Z,10.80
2023-10-01T03:13:00.968Z,10.27
2023-10-01T03:15:30.134Z,10.67
2023-10-01T03:18:06.970Z,11.33
2023-10-01T03:20:40.417Z,10.77
2023-10-01T03:23:12.053Z,11.57
2023-10-01T03:25:56.757Z,12.17
2023-10-01T03:28:27.699Z,11.33
2023-10-01T03:31:09.308Z,12.03
2023-10-01T03:33:44.113Z,10.03
2023-10-01T03:36:12.615Z,12.63
2023-10-01T03:38:45.890Z,13.50
2023-10-01T03:41:22.825Z,10.80
2023-10-01T03:44:10.360Z,13.57
2023-10-01T03:46:47.623Z,12.13
2023-10-01T03:49:32.873Z,10.53
2023-10-01T03:52:00.094Z,11.87
2023-10-01T03:54:48.457Z,12.07
2023-10-01T03:57:18.446Z,9.40
2023-10-01T03:59:55.710Z,11.00
2023-10-01T04:02:47.455Z,12.00
2023-10-01T04:05:45.296Z,10.70
2023-10-01T04:08:12.798Z,11.47
2023-10-01T04:10:40.585Z,11.43
2023-10-01T04:13:14.038Z,11.50
2023-10-01T04:15:42.928Z,12.23
2023-10-01T04:18:16.129Z,9.97
2023-10-01T04:21:09.135Z,10.13
2023-10-01T04:23:49.939Z,10.87
2023-10-01T04:26:20.890Z,11.77
2023-10-01T04:28:51.680Z,9.40
2023-10-01T04:31:21.276Z,10.40
2023-10-01T04:33:50.711Z,10.37
2023-10-01T04:36:20.472Z,10.13
2023-10-01T04:38:52.700Z,10.93
2023-10-01T04:41:20.210Z,12.00
2023-10-01T04:43:56.820Z,10.73
2023-10-01T04:46:31.408Z,9.83
2023-10-01T04:48:59.028Z,9.13
2023-10-01T04:51:46.004Z,12.30
2023-10-01T04:54:22.181Z,10.50
2023-10-01T04:56:50.461Z,11.03
2023-10-01T04:59:18.248Z,9.63
2023-10-01T05:01:45.314Z,8.57
2023-10-01T05:04:12.999Z,11.13
2023-10-01T05:06:44.145Z,9.23
2023-10-01T05:09:15.646Z,9.83
2023-10-01T05:11:43.724Z,10.60
2023-10-01T05:14:13.368Z,11.27
2023-10-01T05:16:40.914Z,10.87
2023-10-01T05:19:11.235Z,9.83
2023-10-01T05:21:48.987Z,10.47
2023-10-01T05:24:17.211Z,10.63
2023-10-01T05:26:47.113Z,12.50
2023-10-01T05:29:21.377Z,12.30
2023-10-01T05:31:48.815Z,11.70
2023-10-01T05:34:16.103Z,11.00
2023-10-01T05:36:42.927Z,12.77
2023-10-01T05:39:12.912Z,13.20
2023-10-01T05:41:45.656Z,10.73
2023-10-01T05:44:12.781Z,11.73
2023-10-01T05:46:39.614Z,10.63
2023-10-01T05:49:09.708Z,9.83
2023-10-01T05:51:46.363Z,10.57
2023-10-01T05:54:20.234Z,14.47
2023-10-01T05:56:49.624Z,9.67
2023-10-01T05:59:17.557Z,11.43
2023-10-01T06:01:45.279Z,11.60
2023-10-01T06:04:14.238Z,11.00
2023-10-01T06:06:43.728Z,11.60
2023-10-01T06:09:15.917Z,10.90
2023-10-01T06:11:49.628Z,12.70
2023-10-01T06:14:36.565Z,10.00
2023-10-01T06:17:03.753Z,10.13
2023-10-01T06:19:34.664Z,10.07
2023-10-01T06:24:50.662Z,9.33
2023-10-01T06:27:20.329Z,9.53
2023-10-01T06:29:53.437Z,9.13
2023-10-01T06:32:22.073Z,10.07
2023-10-01T06:34:50.516Z,9.50
2023-10-01T06:37:20.135Z,10.23
2023-10-01T06:39:47.858Z,7.97
2023-10-01T06:42:22.782Z,10.17
2023-10-01T06:44:54.253Z,9.03
2023-10-01T06:47:24.005Z,9.40
2023-10-01T06:49:58.700Z,8.97
2023-10-01T06:52:28.533Z,7.73
2023-10-01T06:55:02.097Z,9.43
2023-10-01T06:57:32.432Z,8.50
2023-10-01T06:59:59.217Z,10.37
2023-10-01T07:02:29.024Z,8.87
2023-10-01T07:07:36.925Z,10.90
2023-10-01T07:10:11.648Z,9.45
2023-10-01T07:12:39.679Z,12.25
2023-10-01T07:15:07.555Z,9.15
2023-10-01T07:17:36.453Z,7.85
2023-10-01T07:20:19.891Z,8.10
2023-10-01T07:22:47.699Z,10.35
2023-10-01T07:25:34.432Z,9.60
2023-10-01T07:28:02.099Z,10.52
2023-10-01T07:30:41.083Z,10.27
2023-10-01T07:33:08.224Z,10.15
2023-10-01T07:35:45.618Z,9.25
2023-10-01T07:38:16.137Z,9.98
2023-10-01T07:40:58.891Z,9.23
2023-10-01T07:43:26.772Z,11.95
2023-10-01T07:45:59.281Z,8.85
2023-10-01T07:48:30.765Z,9.98
2023-10-01T07:50:59.365Z,9.40
2023-10-01T07:53:34.210Z,10.90
2023-10-01T07:56:08.163Z,7.90
2023-10-01T07:58:51.899Z,8.80
2023-10-01T08:01:38.051Z,10.35
2023-10-01T08:04:20.884Z,10.30
2023-10-01T08:06:50.671Z,10.57
2023-10-01T08:09:18.425Z,9.55
2023-10-01T08:12:06.311Z,9.55
2023-10-01T08:14:37.236Z,10.48
2023-10-01T08:17:07.263Z,8.40
2023-10-01T08:19:45.712Z,10.40
2023-10-01T08:22:15.211Z,8.68
2023-10-01T08:24:46.970Z,11.38
2023-10-01T08:27:15.164Z,8.68
2023-10-01T08:30:00.280Z,10.88
2023-10-01T08:32:39.622Z,12.05
2023-10-01T08:35:07.875Z,11.52
2023-10-01T08:37:38.886Z,8.75
2023-10-01T08:40:15.747Z,9.13
2023-10-01T08:42:46.242Z,8.60
2023-10-01T08:45:18.275Z,11.02
2023-10-01T08:47:49.145Z,9.68
2023-10-01T08:50:29.301Z,8.25
2023-10-01T08:52:58.646Z,8.23
2023-10-01T08:56:01.352Z,10.70
2023-10-01T08:58:29.502Z,9.77
2023-10-01T09:01:12.752Z,9.43
2023-10-01T09:03:40.882Z,10.32
2023-10-01T09:06:09.882Z,9.35
2023-10-01T09:08:44.426Z,8.77
2023-10-01T09:11:17.132Z,8.27
2023-10-01T09:13:59.890Z,9.45
2023-10-01T09:16:33.605Z,8.52
2023-10-01T09:19:31.023Z,10.77
2023-10-01T09:22:08.900Z,9.27
2023-10-01T09:24:39.234Z,11.13
2023-10-01T09:27:26.174Z,8.75
2023-10-01T09:30:26.382Z,10.13
2023-10-01T09:33:06.920Z,9.35
2023-10-01T09:35:51.044Z,10.23
2023-10-01T09:38:21.211Z,9.13
2023-10-01T09:40:48.604Z,9.23
2023-10-01T09:43:20.350Z,9.75
2023-10-01T09:45:49.504Z,9.63
2023-10-01T09:48:37.978Z,8.98
2023-10-01T09:51:09.745Z,10.45
2023-10-01T09:54:01.396Z,10.55
2023-10-01T09:56:44.698Z,10.52
2023-10-01T09:59:12.787Z,9.73
2023-10-01T10:01:41.248Z,8.33
2023-10-01T10:04:11.575Z,8.70
2023-10-01T10:06:40.603Z,9.13
2023-10-01T10:09:26.641Z,9.18
2023-10-01T10:11:55.740Z,9.57
2023-10-01T10:14:28.139Z,9.48
2023-10-01T10:17:08.597Z,9.77
2023-10-01T10:20:21.011Z,10.70
2023-10-01T10:23:15.659Z,10.75
2023-10-01T10:25:44.865Z,10.90
2023-10-01T10:28:14.021Z,11.10
2023-10-01T10:30:42.487Z,9.85
2023-10-01T10:33:15.357Z,9.77
2023-10-01T10:35:50.350Z,9.55
2023-10-01T10:38:52.481Z,9.52
2023-10-01T10:41:20.977Z,9.43
2023-10-01T10:44:10.535Z,9.32
2023-10-01T10:47:01.838Z,8.85
2023-10-01T10:49:53.591Z,9.90
2023-10-01T10:52:32.868Z,9.30
2023-10-01T10:55:21.330Z,9.30
2023-10-01T10:57:49.482Z,10.13
2023-10-01T11:00:29.149Z,10.38
2023-10-01T11:02:58.093Z,10.38
2023-10-01T11:05:30.396Z,10.23
2023-10-01T11:08:00.561Z,9.75
2023-10-01T11:10:30.573Z,9.65
2023-10-01T11:12:57.917Z,10.32
2023-10-01T11:15:36.179Z,9.70
2023-10-01T11:18:03.250Z,10.27
2023-10-01T11:20:37.784Z,9.43
2023-10-01T11:23:09.901Z,10.82
2023-10-01T11:25:41.693Z,9.35
2023-10-01T11:28:10.029Z,9.25
2023-10-01T11:30:43.830Z,9.18
2023-10-01T11:33:12.905Z,10.32
2023-10-01T11:35:42.044Z,9.20
2023-10-01T11:38:09.986Z,9.88
2023-10-01T11:40:57.277Z,10.00
2023-10-01T11:43:28.932Z,9.85
2023-10-01T11:46:22.475Z,8.95
2023-10-01T11:49:06.160Z,11.25
2023-10-01T11:51:46.817Z,9.50
2023-10-01T11:54:17.280Z,9.63
2023-10-01T11:57:06.743Z,9.63
2023-10-01T11:59:36.387Z,10.43
2023-10-01T12:02:22.708Z,9.60
2023-10-01T12:05:01.290Z,10.57
2023-10-01T12:07:34.040Z,10.57
2023-10-01T12:10:05.955Z,10.93
2023-10-01T12:12:38.283Z,11.68
2023-10-01T12:15:24.796Z,10.98
2023-10-01T12:17:51.583Z,11.18
2023-10-01T12:20:29.753Z,11.13
2023-10-01T12:23:15.296Z,9.93
2023-10-01T12:25:47.312Z,12.40
2023-10-01T12:28:25.435Z,11.27
2023-10-01T12:30:59.993Z,12.15
2023-10-01T12:33:40.146Z,11.38
2023-10-01T12:36:29.908Z,12.07
2023-10-01T12:39:12.762Z,14.68
2023-10-01T12:41:54.285Z,13.95
2023-10-01T12:44:33.882Z,13.85
2023-10-01T12:47:16.376Z,13.02
2023-10-01T12:50:00.161Z,13.13
2023-10-01T12:52:31.461Z,13.05
2023-10-01T12:55:02.028Z,12.80
2023-10-01T12:57:34.853Z,14.27
2023-10-01T13:00:20.165Z,13.23
2023-10-01T13:02:49.072Z,13.23
2023-10-01T13:05:21.472Z,14.45
2023-10-01T13:07:53.264Z,13.18
2023-10-01T13:10:34.323Z,15.45
2023-10-01T13:13:06.214Z,13.35
2023-10-01T13:15:38.709Z,14.40
2023-10-01T13:18:15.705Z,14.25
2023-10-01T13:20:49.495Z,12.98
2023-10-01T13:23:16.436Z,13.82
2023-10-01T13:25:48.208Z,13.57
2023-10-01T13:28:22.284Z,15.48
2023-10-01T13:31:01.315Z,13.88
2023-10-01T13:33:48.065Z,15.38
2023-10-01T13:36:24.296Z,16.13
2023-10-01T13:38:58.229Z,13.52
2023-10-01T13:41:25.283Z,14.95
2023-10-01T13:44:10.647Z,16.00
2023-10-01T13:46:56.078Z,14.35
2023-10-01T13:49:41.742Z,15.38
2023-10-01T13:52:27.324Z,13.73
2023-10-01T13:55:12.673Z,14.02
2023-10-01T13:57:58.122Z,14.18
2023-10-01T14:00:43.576Z,12.45
2023-10-01T14:03:29.008Z,13.80
2023-10-01T14:06:14.649Z,13.38
2023-10-01T14:08:44.356Z,15.90
2023-10-01T14:11:12.837Z,14.80
2023-10-01T14:13:45.126Z,14.52
2023-10-01T14:16:13.747Z,14.48
2023-10-01T14:18:41.512Z,16.17
2023-10-01T14:21:14.688Z,16.85
2023-10-01T14:23:43.944Z,15.35
2023-10-01T14:26:36.822Z,14.77
2023-10-01T14:29:07.232Z,13.80
2023-10-01T14:31:49.819Z,16.45
2023-10-01T14:34:21.807Z,15.13
2023-10-01T14:36:53.353Z,14.15
2023-10-01T14:39:20.525Z,15.38
2023-10-01T14:41:47.356Z,15.30
2023-10-01T14:44:25.641Z,15.75
2023-10-01T14:46:57.651Z,14.85
2023-10-01T14:49:24.934Z,15.02
2023-10-01T14:51:55.194Z,17.08
2023-10-01T14:54:22.143Z,17.13
2023-10-01T14:56:56.433Z,16.23
2023-10-01T14:59:25.605Z,15.63
2023-10-01T15:01:53.320Z,16.20
2023-10-01T15:04:23.127Z,17.30
2023-10-01T15:06:58.141Z,16.00
2023-10-01T15:09:35.219Z,16.85
2023-10-01T15:12:03.989Z,15.23
2023-10-01T15:14:42.228Z,15.60
2023-10-01T15:17:18.684Z,15.98
2023-10-01T15:19:53.823Z,15.38
2023-10-01T15:22:20.965Z,14.75
2023-10-01T15:24:49.450Z,15.75
2023-10-01T15:27:26.495Z,16.80
2023-10-01T15:29:54.307Z,13.90
2023-10-01T15:32:21.573Z,15.20
2023-10-01T15:34:57.769Z,15.23
2023-10-01T15:37:31.284Z,15.82
2023-10-01T15:40:02.576Z,14.70
2023-10-01T15:42:36.308Z,14.23
2023-10-01T15:45:17.204Z,13.68
2023-10-01T15:47:46.920Z,16.40
2023-10-01T15:50:16.638Z,16.42
2023-10-01T15:52:48.628Z,15.40
2023-10-01T15:55:32.673Z,15.90
2023-10-01T15:58:04.727Z,15.90
2023-10-01T16:00:37.683Z,15.93
2023-10-01T16:03:12.963Z,17.38
2023-10-01T16:05:46.623Z,16.83
2023-10-01T16:08:22.261Z,14.32
2023-10-01T16:10:52.306Z,17.33
2023-10-01T16:13:30.162Z,15.65
2023-10-01T16:16:09.152Z,15.65
2023-10-01T16:18:38.432Z,16.58
2023-10-01T16:21:15.483Z,15.47
2023-10-01T16:23:42.639Z,16.57
2023-10-01T16:26:17.796Z,15.80
2023-10-01T16:28:47.787Z,15.83
2023-10-01T16:31:18.521Z,15.33
2023-10-01T16:33:48.052Z,15.13
2023-10-01T16:36:19.389Z,15.80
2023-10-01T16:38:54.972Z,15.87
2023-10-01T16:41:24.288Z,18.63
2023-10-01T16:43:54.851Z,16.27
2023-10-01T16:46:27.007Z,18.37
2023-10-01T16:49:01.074Z,16.63
2023-10-01T16:51:35.222Z,14.90
2023-10-01T16:54:14.516Z,16.13
2023-10-01T16:56:45.862Z,15.13
2023-10-01T16:59:13.417Z,17.47
2023-10-01T17:01:40.608Z,16.10
2023-10-01T17:04:28.085Z,14.60
2023-10-01T17:06:57.189Z,16.13
2023-10-01T17:09:34.344Z,18.37
2023-10-01T17:12:02.874Z,17.00
2023-10-01T17:14:29.714Z,16.17
2023-10-01T17:16:58.833Z,15.20
2023-10-01T17:19:33.803Z,18.03
2023-10-01T17:22:09.015Z,14.97
2023-10-01T17:24:44.194Z,13.93
2023-10-01T17:27:20.476Z,16.27
2023-10-01T17:29:48.871Z,15.13
2023-10-01T17:32:20.146Z,14.80
2023-10-01T17:34:48.163Z,16.23
2023-10-01T17:37:23.717Z,15.50
2023-10-01T17:39:57.160Z,17.00
2023-10-01T17:42:26.456Z,14.77
2023-10-01T17:44:55.776Z,16.50
2023-10-01T17:47:23.585Z,14.97
2023-10-01T17:49:55.205Z,16.20
2023-10-01T17:52:29.642Z,16.10
2023-10-01T17:55:03.765Z,17.80
2023-10-01T17:57:37.998Z,21.13
2023-10-01T18:00:15.390Z,21.20
2023-10-01T18:02:43.186Z,18.77
2023-10-01T18:05:19.750Z,21.43
2023-10-01T18:07:57.127Z,19.57
2023-10-01T18:10:44.084Z,20.53
2023-10-01T18:13:16.813Z,22.00
2023-10-01T18:15:56.437Z,21.87
2023-10-01T18:18:28.064Z,22.73
2023-10-01T18:20:59.701Z,20.37
2023-10-01T18:23:27.375Z,22.13
2023-10-01T18:25:56.160Z,23.07
2023-10-01T18:28:25.600Z,19.87
2023-10-01T18:30:55.345Z,23.13
2023-10-01T18:33:23.999Z,20.77
2023-10-01T18:35:57.143Z,21.97
2023-10-01T18:38:32.066Z,21.73
2023-10-01T18:41:00.620Z,18.60
2023-10-01T18:43:28.143Z,21.17
2023-10-01T18:45:58.151Z,19.80
2023-10-01T18:48:39.981Z,19.20
2023-10-01T18:51:13.005Z,20.50
2023-10-01T18:53:42.233Z,19.00
2023-10-01T18:56:09.978Z,20.63
2023-10-01T18:58:38.552Z,18.73
2023-10-01T19:01:06.530Z,20.07
2023-10-01T19:03:35.343Z,18.73
2023-10-01T19:06:03.282Z,18.90
2023-10-01T19:08:31.818Z,17.80
2023-10-01T19:11:03.309Z,19.77
2023-10-01T19:13:35.014Z,17.83
2023-10-01T19:16:03.142Z,19.67
2023-10-01T19:18:30.869Z,18.17
2023-10-01T19:20:59.779Z,17.87
2023-10-01T19:23:33.650Z,17.07
2023-10-01T19:26:02.796Z,16.97
2023-10-01T19:28:30.626Z,17.53
2023-10-01T19:30:58.485Z,18.17
2023-10-01T19:33:26.023Z,20.27
2023-10-01T19:35:53.962Z,18.80
2023-10-01T19:38:22.102Z,19.17
2023-10-01T19:40:50.369Z,18.63
2023-10-01T19:43:27.288Z,17.40
2023-10-01T19:45:54.644Z,18.13
2023-10-01T19:48:23.266Z,19.27
2023-10-01T19:50:52.100Z,17.80
2023-10-01T19:53:23.869Z,18.77
2023-10-01T19:55:59.795Z,18.10
2023-10-01T19:58:34.650Z,18.83
2023-10-01T20:01:08.520Z,18.57
2023-10-01T20:03:36.281Z,21.03
2023-10-01T20:06:06.195Z,19.83
2023-10-01T20:08:37.924Z,19.73
2023-10-01T20:11:12.272Z,20.33
2023-10-01T20:13:40.592Z,17.03
2023-10-01T20:16:11.764Z,17.90
2023-10-01T20:18:39.701Z,17.17
2023-10-01T20:21:19.046Z,19.50
2023-10-01T20:23:45.937Z,21.27
2023-10-01T20:26:21.011Z,18.33
2023-10-01T20:28:51.674Z,16.43
2023-10-01T20:31:19.791Z,18.93
2023-10-01T20:33:52.846Z,19.43
2023-10-01T20:36:20.596Z,17.83
2023-10-01T20:38:53.265Z,18.50
2023-10-01T20:41:22.624Z,16.97
2023-10-01T20:43:57.610Z,17.00
2023-10-01T20:46:25.261Z,20.70
2023-10-01T20:49:00.539Z,18.53
2023-10-01T20:51:37.811Z,18.87
2023-10-01T20:54:22.604Z,18.57
2023-10-01T20:56:53.627Z,19.93
2023-10-01T20:59:21.586Z,19.87
2023-10-01T21:01:49.943Z,19.40
2023-10-01T21:04:26.740Z,20.07
2023-10-01T21:07:09.472Z,19.70
2023-10-01T21:09:39.386Z,20.83
2023-10-01T21:12:13.692Z,18.90
2023-10-01T21:14:48.411Z,17.80
2023-10-01T21:17:37.182Z,19.83
2023-10-01T21:20:18.903Z,16.70
2023-10-01T21:22:47.884Z,19.23
2023-10-01T21:25:25.699Z,18.90
2023-10-01T21:27:58.278Z,18.90
2023-10-01T21:30:28.511Z,15.73
2023-10-01T21:32:56.827Z,14.60
2023-10-01T21:35:24.449Z,20.37
2023-10-01T21:37:51.577Z,18.90
2023-10-01T21:40:22.830Z,17.53
2023-10-01T21:42:53.281Z,20.27
2023-10-01T21:45:28.954Z,18.50
2023-10-01T21:48:03.914Z,17.30
2023-10-01T21:50:37.505Z,18.83
2023-10-01T21:53:12.432Z,19.70
2023-10-01T21:55:39.947Z,17.43
2023-10-01T21:58:07.307Z,16.40
2023-10-01T22:01:02.140Z,15.17
2023-10-01T22:03:35.544Z,17.67
2023-10-01T22:06:06.669Z,18.00
2023-10-01T22:08:33.726Z,18.57
2023-10-01T22:11:01.504Z,16.37
2023-10-01T22:13:32.644Z,17.33
2023-10-01T22:16:02.740Z,17.23
2023-10-01T22:18:32.657Z,20.00
2023-10-01T22:21:07.548Z,15.43
2023-10-01T22:23:35.974Z,17.47
2023-10-01T22:26:05.609Z,15.90
2023-10-01T22:28:33.999Z,17.67
2023-10-01T22:31:10.737Z,17.67
2023-10-01T22:33:38.806Z,17.43
2023-10-01T22:36:15.726Z,19.03
2023-10-01T22:38:42.505Z,16.60
2023-10-01T22:41:13.377Z,20.50
2023-10-01T22:43:57.405Z,17.90
2023-10-01T22:46:24.423Z,17.63
2023-10-01T22:48:52.690Z,17.90
2023-10-01T22:51:22.747Z,17.43
2023-10-01T22:53:50.207Z,17.73
2023-10-01T22:56:18.194Z,16.93
2023-10-01T22:58:45.330Z,17.63
2023-10-01T23:01:19.601Z,18.17
2023-10-01T23:03:46.834Z,16.93
2023-10-01T23:06:15.045Z,19.00
2023-10-01T23:08:51.342Z,17.67
2023-10-01T23:11:24.666Z,17.50
2023-10-01T23:13:55.208Z,16.03
2023-10-01T23:16:22.970Z,17.10
2023-10-01T23:18:52.896Z,18.10
2023-10-01T23:21:20.481Z,15.97
2023-10-01T23:23:47.581Z,19.13
2023-10-01T23:26:20.021Z,16.23
2023-10-01T23:29:08.623Z,17.83
2023-10-01T23:31:48.994Z,17.37
2023-10-01T23:34:20.117Z,15.53
2023-10-01T23:36:50.950Z,17.40
2023-10-01T23:39:30.449Z,16.20
2023-10-01T23:42:01.920Z,18.67
2023-10-01T23:44:29.007Z,17.00
2023-10-01T23:46:57.948Z,16.93
2023-10-01T23:49:28.791Z,17.87
2023-10-01T23:52:04.086Z,19.03
2023-10-01T23:54:37.602Z,17.10
2023-10-01T23:57:13.872Z,18.03
2023-10-01T23:59:51.576Z,14.47
